Airfield :
LOGIN :

Register | Disclaimer

   EN    FR    IT 

 










Legend :    VFR   Marginal VFR   IFR   Intensive IFR   Very Intensive IFR
Visi :
Ceiling :
>= 8 km
>= 3000ft
5 to 8 km
1000 to 3000 ft
1500m to 5 km
500 to 1000 ft
800 to 1500m
200 to 500 ft
< 800m
< 200 ft
Symbols :   Thunderstorms  Fog  Heavy snow  Heavy precipitations  Wind > 20 kt
SIGMETs :     Misc.  Thunderstorms  Icing  Turbulence  Mountain Waves  Volcanic Ashes







- Airport Elevation : 39 ft


ETNH - Hohn AB

CURRENT METAR :
  • 211820Z 28008KT 9999 FEW016 SCT030 17/13 Q1020 BLU+

EXPIRED METARs :
  • 211720Z 29010KT 9999 SCT020 BKN027 17/13 Q1020 BLU
  • 211659Z 28011KT 9999 FEW016 BKN021 17/13 Q1020 WHT
  • 211620Z 28013KT 9999 SCT017 BKN025 18/13 Q1020 BLU

TAF TAF ETNH
Valid from the 21 at 17:00 until the 22 at 05:00 UTC


211610Z 2117/2205 25015G25KT 9999 NSW SCT020 BKN220
TEMPO 2117/2121 28010KT 9999 NSW FEW015 BKN020
BECMG 2119/2121 22008KT 9999 NSW FEW200 BY ETGL
No reported NOTAMs for that airfield.



MET'MAP, your aeronautical weather chart ! - Copyright ORBIFLY December 2007 - Disclaimer

ORBIFLY MET'MAP TEAM :

Programming & Development : Alexandra Zaïnal
Concept & Development : Baudouin d'Aumeries
Co-Development & Prog : Marc-Olivier Méhu
Technical & hardware support : Manuel Goepfert

Contact : metmap@orbifly.com




SOURCES & CREDITS :

   NOAA